createdAt,value
2018-02-08T00:00:16.514Z,66.62
2018-02-08T00:02:45.858Z,72.55
2018-02-08T00:05:15.210Z,73.72
2018-02-08T00:07:44.554Z,81.80
2018-02-08T00:19:50.918Z,81.60
2018-02-08T00:22:38.052Z,74.22
2018-02-08T00:25:07.394Z,73.30
2018-02-08T00:27:36.765Z,64.15
2018-02-08T00:30:06.106Z,74.95
2018-02-08T00:32:35.439Z,65.12
2018-02-08T00:35:04.800Z,68.60
2018-02-08T00:37:34.131Z,71.87
2018-02-08T00:40:04.379Z,70.65
2018-02-08T00:42:33.690Z,67.70
2018-02-08T00:45:03.124Z,79.15
2018-02-08T00:47:32.466Z,64.90
2018-02-08T00:50:02.605Z,69.62
2018-02-08T00:52:31.970Z,76.47
2018-02-08T00:55:01.374Z,77.80
2018-02-08T00:57:30.722Z,69.20
2018-02-08T01:00:00.098Z,65.70
2018-02-08T01:02:30.222Z,77.15
2018-02-08T01:05:00.209Z,74.20
2018-02-08T01:07:29.561Z,68.05
2018-02-08T01:09:58.921Z,69.37
2018-02-08T01:12:29.091Z,73.75
2018-02-08T01:14:58.477Z,76.32
2018-02-08T01:17:27.826Z,74.18
2018-02-08T01:19:57.219Z,69.28
2018-02-08T01:22:26.578Z,78.62
2018-02-08T01:24:55.944Z,69.62
2018-02-08T01:27:25.324Z,75.60
2018-02-08T01:29:54.684Z,67.68
2018-02-08T01:32:24.070Z,72.97
2018-02-08T01:34:54.181Z,71.00
2018-02-08T01:37:23.625Z,70.90
2018-02-08T01:39:52.986Z,68.85
2018-02-08T01:42:22.359Z,70.90
2018-02-08T01:44:51.737Z,73.10
2018-02-08T01:47:21.081Z,65.95
2018-02-08T01:49:50.446Z,84.80
2018-02-08T01:52:19.823Z,79.60
2018-02-08T01:54:49.237Z,71.70
2018-02-08T01:57:18.596Z,76.72
2018-02-08T01:59:47.985Z,72.25
2018-02-08T02:02:17.371Z,74.00
2018-02-08T02:04:46.727Z,80.38
2018-02-08T02:07:16.120Z,80.82
2018-02-08T02:09:46.247Z,75.87
2018-02-08T02:12:17.105Z,77.93
2018-02-08T02:14:46.463Z,78.70
2018-02-08T02:17:16.719Z,79.72
2018-02-08T02:19:46.103Z,76.47
2018-02-08T02:22:16.921Z,91.90
2018-02-08T02:24:46.283Z,74.07
2018-02-08T02:27:15.631Z,76.07
2018-02-08T02:29:45.000Z,71.82
2018-02-08T02:32:14.356Z,69.20
2018-02-08T02:34:44.493Z,68.57
2018-02-08T02:37:13.870Z,88.30
2018-02-08T02:39:43.238Z,83.30
2018-02-08T02:42:12.613Z,72.75
2018-02-08T02:44:41.967Z,79.43
2018-02-08T02:47:11.333Z,78.97
2018-02-08T02:49:40.689Z,85.78
2018-02-08T02:52:10.083Z,78.85
2018-02-08T02:54:40.216Z,76.93
2018-02-08T02:57:09.602Z,70.60
2018-02-08T02:59:39.767Z,73.20
2018-02-08T03:02:09.159Z,72.95
2018-02-08T03:04:38.503Z,86.07
2018-02-08T03:07:07.867Z,80.62
2018-02-08T03:09:37.265Z,80.30
2018-02-08T03:12:06.613Z,75.18
2018-02-08T03:14:35.985Z,76.85
2018-02-08T03:17:05.377Z,81.45
2018-02-08T03:19:34.711Z,74.72
2018-02-08T03:22:04.087Z,79.12
2018-02-08T03:24:33.452Z,73.93
2018-02-08T03:27:02.813Z,71.32
2018-02-08T03:29:32.196Z,81.63
2018-02-08T03:32:01.555Z,87.40
2018-02-08T03:34:30.977Z,77.57
2018-02-08T03:37:00.327Z,82.12
2018-02-08T03:39:29.677Z,87.28
2018-02-08T03:41:59.174Z,82.40
2018-02-08T03:44:28.516Z,82.93
2018-02-08T03:46:57.874Z,86.45
2018-02-08T03:49:27.257Z,88.32
2018-02-08T03:51:57.411Z,91.10
2018-02-08T03:54:26.755Z,87.43
2018-02-08T03:56:56.136Z,87.00
2018-02-08T03:59:25.502Z,77.97
2018-02-08T04:01:54.890Z,80.35
2018-02-08T04:04:25.001Z,83.35
2018-02-08T04:06:54.362Z,73.93
2018-02-08T04:09:23.685Z,86.50
2018-02-08T04:11:53.058Z,79.90
2018-02-08T04:14:22.400Z,84.35
2018-02-08T04:16:51.891Z,86.93
2018-02-08T04:19:21.264Z,85.10
2018-02-08T04:21:50.621Z,91.63
2018-02-08T04:24:20.821Z,80.57
2018-02-08T04:26:50.195Z,83.62
2018-02-08T04:29:19.548Z,84.10
2018-02-08T04:31:49.712Z,96.50
2018-02-08T04:34:19.684Z,88.40
2018-02-08T04:36:49.873Z,87.68
2018-02-08T04:39:37.032Z,87.43
2018-02-08T04:42:24.928Z,80.75
2018-02-08T04:48:08.423Z,88.93
2018-02-08T04:50:38.688Z,91.50
2018-02-08T04:53:08.045Z,81.25
2018-02-08T04:55:38.613Z,92.93
2018-02-08T04:58:07.958Z,89.18
2018-02-08T05:00:37.361Z,82.43
2018-02-08T05:03:06.736Z,100.03
2018-02-08T05:05:36.090Z,81.07
2018-02-08T05:08:06.231Z,99.65
2018-02-08T05:10:35.607Z,85.72
2018-02-08T05:13:05.788Z,90.82
2018-02-08T05:15:35.127Z,89.60
2018-02-08T05:18:05.272Z,88.00
2018-02-08T05:20:34.635Z,93.87
2018-02-08T05:23:04.003Z,95.72
2018-02-08T05:25:33.488Z,91.95
2018-02-08T05:28:02.847Z,92.22
2018-02-08T05:30:32.979Z,89.43
2018-02-08T05:33:02.390Z,96.10
2018-02-08T05:35:31.735Z,94.82
2018-02-08T05:38:01.121Z,94.82
2018-02-08T05:40:30.475Z,97.70
2018-02-08T05:43:00.644Z,85.45
2018-02-08T05:45:30.002Z,100.07
2018-02-08T05:48:00.170Z,91.53
2018-02-08T05:50:29.526Z,94.00
2018-02-08T05:52:59.700Z,106.63
2018-02-08T05:55:29.039Z,99.28
2018-02-08T05:57:58.646Z,91.30
2018-02-08T06:00:28.018Z,90.87
2018-02-08T06:02:57.383Z,85.03
2018-02-08T06:05:26.740Z,97.97
2018-02-08T06:07:56.139Z,90.12
2018-02-08T06:10:25.492Z,89.95
2018-02-08T06:12:54.847Z,94.55
2018-02-08T06:15:24.225Z,90.45
2018-02-08T06:17:53.597Z,86.75
2018-02-08T06:20:22.975Z,85.22
2018-02-08T06:22:53.084Z,87.70
2018-02-08T06:25:22.475Z,91.63
2018-02-08T06:27:51.836Z,97.37
2018-02-08T06:30:21.181Z,89.70
2018-02-08T06:32:51.314Z,95.05
2018-02-08T06:35:21.450Z,85.20
2018-02-08T06:37:51.600Z,93.80
2018-02-08T06:40:20.944Z,93.35
2018-02-08T06:42:50.284Z,99.05
2018-02-08T06:45:19.672Z,94.68
2018-02-08T06:47:49.017Z,88.22
2018-02-08T06:50:18.393Z,100.35
2018-02-08T06:52:47.738Z,98.97
2018-02-08T06:55:17.110Z,90.85
2018-02-08T06:57:46.479Z,91.37
2018-02-08T07:00:15.827Z,89.18
2018-02-08T07:02:45.221Z,90.68
2018-02-08T07:05:14.589Z,86.97
2018-02-08T07:07:44.731Z,93.97
2018-02-08T07:10:14.106Z,97.50
2018-02-08T07:12:43.452Z,92.37
2018-02-08T07:15:12.855Z,99.53
2018-02-08T07:17:42.222Z,98.95
2018-02-08T07:20:12.564Z,107.22
2018-02-08T07:22:41.930Z,99.13
2018-02-08T07:25:12.044Z,86.30
2018-02-08T07:27:41.426Z,98.35
2018-02-08T07:30:10.802Z,101.55
2018-02-08T07:32:40.203Z,97.30
2018-02-08T07:35:09.566Z,94.70
2018-02-08T07:37:39.714Z,102.35
2018-02-08T07:40:09.078Z,89.60
2018-02-08T07:42:39.229Z,99.40
2018-02-08T07:45:08.604Z,100.70
2018-02-08T07:47:39.105Z,105.90
2018-02-08T07:50:08.467Z,91.22
2018-02-08T07:52:37.879Z,93.82
2018-02-08T07:55:07.256Z,96.50
2018-02-08T07:57:36.608Z,101.00
2018-02-08T08:00:06.146Z,104.93
2018-02-08T08:02:36.274Z,107.50
2018-02-08T08:05:06.469Z,97.03
2018-02-08T08:07:35.830Z,97.93
2018-02-08T08:10:05.280Z,93.30
2018-02-08T08:12:35.420Z,107.90
2018-02-08T08:15:05.566Z,97.45
2018-02-08T08:17:34.919Z,105.57
2018-02-08T08:20:04.291Z,109.82
2018-02-08T08:22:33.700Z,119.50
2018-02-08T08:25:03.215Z,117.65
2018-02-08T08:27:32.569Z,100.03
2018-02-08T08:30:01.957Z,105.82
2018-02-08T08:32:32.069Z,94.07
2018-02-08T08:35:02.215Z,103.18
2018-02-08T08:37:31.559Z,112.62
2018-02-08T08:40:00.938Z,110.78
2018-02-08T08:42:30.328Z,106.78
2018-02-08T08:45:00.549Z,108.65
2018-02-08T08:47:29.921Z,106.72
2018-02-08T08:50:00.131Z,120.97
2018-02-08T08:52:30.260Z,97.32
2018-02-08T08:55:00.406Z,117.82
2018-02-08T08:57:29.775Z,105.50
2018-02-08T08:59:59.931Z,96.32
2018-02-08T09:02:29.297Z,112.50
2018-02-08T09:04:59.477Z,107.53
2018-02-08T09:07:28.997Z,112.43
2018-02-08T09:09:58.379Z,108.15
2018-02-08T09:12:27.743Z,111.60
2018-02-08T09:14:57.922Z,103.25
2018-02-08T09:17:27.415Z,101.07
2018-02-08T09:19:56.786Z,102.70
2018-02-08T09:22:26.151Z,108.60
2018-02-08T09:24:55.532Z,101.55
2018-02-08T09:27:24.883Z,101.32
2018-02-08T09:29:54.238Z,111.32
2018-02-08T09:32:23.621Z,115.22
2018-02-08T09:34:52.983Z,117.60
2018-02-08T09:37:23.133Z,101.70
2018-02-08T09:39:52.493Z,109.72
2018-02-08T09:42:22.658Z,109.28
2018-02-08T09:44:52.017Z,110.55
2018-02-08T09:47:22.157Z,121.10
2018-02-08T09:49:51.531Z,104.78
2018-02-08T09:52:20.911Z,103.82
2018-02-08T09:54:50.322Z,120.20
2018-02-08T09:57:19.707Z,116.78
2018-02-08T09:59:49.073Z,109.53
2018-02-08T10:02:18.454Z,107.63
2018-02-08T10:04:48.799Z,99.93
2018-02-08T10:07:18.166Z,125.55
2018-02-08T10:09:47.524Z,113.78
2018-02-08T10:12:16.924Z,113.37
2018-02-08T10:14:46.293Z,112.28
2018-02-08T10:17:16.477Z,103.55
2018-02-08T10:19:45.842Z,108.95
2018-02-08T10:22:15.188Z,103.55
2018-02-08T10:24:44.612Z,115.12
2018-02-08T10:27:13.979Z,108.15
2018-02-08T10:29:43.338Z,124.82
2018-02-08T10:32:12.714Z,119.05
2018-02-08T10:34:42.070Z,110.45
2018-02-08T10:37:11.481Z,114.80
2018-02-08T10:39:40.828Z,121.35
2018-02-08T10:42:10.970Z,117.57
2018-02-08T10:44:40.347Z,112.03
2018-02-08T10:47:09.728Z,111.50
2018-02-08T10:49:39.150Z,106.63
2018-02-08T10:52:08.514Z,108.90
2018-02-08T10:54:37.915Z,114.43
2018-02-08T10:57:07.269Z,113.93
2018-02-08T10:59:36.624Z,112.80
2018-02-08T11:02:06.010Z,109.63
2018-02-08T11:04:35.361Z,105.40
2018-02-08T11:07:05.537Z,105.10
2018-02-08T11:09:34.919Z,103.40
2018-02-08T11:12:04.304Z,99.60
2018-02-08T11:14:34.492Z,106.85
2018-02-08T11:17:03.873Z,106.68
2018-02-08T11:19:33.237Z,100.43
2018-02-08T11:22:02.592Z,99.95
2018-02-08T11:24:31.987Z,101.55
2018-02-08T11:27:01.353Z,95.22
2018-02-08T11:29:30.747Z,116.75
2018-02-08T11:32:00.133Z,101.87
2018-02-08T11:34:30.298Z,99.53
2018-02-08T11:36:59.786Z,102.60
2018-02-08T11:39:29.164Z,104.97
2018-02-08T11:41:58.519Z,104.10
2018-02-08T11:44:28.021Z,103.12
2018-02-08T11:46:57.380Z,102.65
2018-02-08T11:49:26.739Z,101.38
2018-02-08T11:51:56.122Z,104.80
2018-02-08T11:54:25.492Z,107.90
2018-02-08T11:56:54.925Z,108.95
2018-02-08T11:59:24.334Z,101.90
2018-02-08T12:01:53.683Z,91.12
2018-02-08T12:04:23.080Z,99.07
2018-02-08T12:06:53.222Z,98.87
2018-02-08T12:09:22.603Z,100.18
2018-02-08T12:11:51.984Z,91.18
2018-02-08T12:14:22.287Z,91.93
2018-02-08T12:16:51.697Z,111.90
2018-02-08T12:19:21.070Z,95.72
2018-02-08T12:21:50.428Z,117.43
2018-02-08T12:24:20.579Z,92.20
2018-02-08T12:26:49.964Z,107.25
2018-02-08T12:29:20.086Z,102.35
2018-02-08T12:31:50.228Z,89.60
2018-02-08T12:34:19.581Z,99.35
2018-02-08T12:36:48.988Z,87.62
2018-02-08T12:39:19.174Z,103.57
2018-02-08T12:41:48.548Z,95.50
2018-02-08T12:44:17.887Z,98.78
2018-02-08T12:46:47.254Z,104.47
2018-02-08T12:49:16.620Z,97.80
2018-02-08T12:51:46.027Z,93.18
2018-02-08T12:54:15.377Z,95.75
2018-02-08T12:56:44.739Z,102.32
2018-02-08T12:59:14.918Z,104.63
2018-02-08T13:01:44.303Z,103.72
2018-02-08T13:04:13.651Z,111.35
2018-02-08T13:06:43.007Z,106.90
2018-02-08T13:09:12.518Z,96.63
2018-02-08T13:11:41.867Z,99.15
2018-02-08T13:14:12.029Z,96.93
2018-02-08T13:16:41.371Z,114.32
2018-02-08T13:19:10.738Z,107.50
2018-02-08T13:21:40.120Z,101.72
2018-02-08T13:24:09.505Z,98.62
2018-02-08T13:26:39.646Z,114.47
2018-02-08T13:29:09.009Z,105.60
2018-02-08T13:31:40.872Z,101.38
2018-02-08T13:34:10.240Z,106.63
2018-02-08T13:36:39.839Z,110.82
2018-02-08T13:39:09.192Z,97.05
2018-02-08T13:41:38.551Z,98.15
2018-02-08T13:44:07.930Z,102.20
2018-02-08T13:46:37.277Z,105.90
2018-02-08T13:52:26.291Z,99.65
2018-02-08T13:58:20.096Z,106.22
2018-02-08T14:00:52.992Z,109.50
2018-02-08T14:03:22.368Z,108.20
2018-02-08T14:05:52.512Z,101.22
2018-02-08T14:08:21.854Z,106.78
2018-02-08T14:10:51.223Z,109.20
2018-02-08T14:13:20.584Z,100.72
2018-02-08T14:15:50.715Z,105.72
2018-02-08T14:18:20.070Z,103.50
2018-02-08T14:20:49.443Z,108.05
2018-02-08T14:23:18.818Z,108.78
2018-02-08T14:25:48.946Z,106.47
2018-02-08T14:28:18.287Z,99.75
2018-02-08T14:30:47.680Z,110.65
2018-02-08T14:33:17.596Z,101.40
2018-02-08T14:35:46.985Z,105.55
2018-02-08T14:38:16.342Z,96.82
2018-02-08T14:40:45.727Z,104.50
2018-02-08T14:43:15.095Z,111.93
2018-02-08T14:45:44.451Z,108.43
2018-02-08T14:48:13.832Z,100.57
2018-02-08T14:50:43.945Z,111.57
2018-02-08T14:53:13.321Z,104.95
2018-02-08T14:55:42.681Z,103.07
2018-02-08T14:58:12.056Z,99.75
2018-02-08T15:00:41.432Z,111.40
2018-02-08T15:03:10.796Z,111.62
2018-02-08T15:05:40.904Z,98.72
2018-02-08T15:08:11.035Z,104.10
2018-02-08T15:10:41.182Z,101.60
2018-02-08T15:13:10.535Z,100.20
2018-02-08T15:15:39.933Z,94.53
2018-02-08T15:18:09.296Z,104.07
2018-02-08T15:20:38.674Z,105.43
2018-02-08T15:23:08.031Z,102.78
2018-02-08T15:25:37.455Z,92.53
2018-02-08T15:28:06.823Z,104.97
2018-02-08T15:30:36.222Z,108.63
2018-02-08T15:33:05.601Z,102.68
2018-02-08T15:35:35.755Z,108.28
2018-02-08T15:38:05.102Z,87.93
2018-02-08T15:40:35.239Z,104.32
2018-02-08T15:43:04.606Z,104.50
2018-02-08T15:45:33.973Z,103.28
2018-02-08T15:48:03.342Z,105.85
2018-02-08T15:50:32.694Z,106.25
2018-02-08T15:53:02.064Z,107.32
2018-02-08T15:55:31.424Z,97.65
2018-02-08T15:58:01.541Z,105.90
2018-02-08T16:00:31.661Z,109.78
2018-02-08T16:03:01.809Z,98.40
2018-02-08T16:05:31.158Z,109.70
2018-02-08T16:08:00.539Z,101.05
2018-02-08T16:10:29.889Z,99.22
2018-02-08T16:13:00.041Z,118.03
2018-02-08T16:15:29.385Z,111.10
2018-02-08T16:17:58.735Z,105.10
2018-02-08T16:20:28.113Z,112.70
2018-02-08T16:22:58.267Z,105.10
2018-02-08T16:25:27.623Z,111.07
2018-02-08T16:27:56.987Z,110.70
2018-02-08T16:30:26.353Z,106.57
2018-02-08T16:32:55.720Z,113.45
2018-02-08T16:35:25.106Z,113.60
2018-02-08T16:37:54.450Z,111.50
2018-02-08T16:40:24.576Z,107.55
2018-02-08T16:42:54.729Z,126.65
2018-02-08T16:45:24.087Z,111.80
2018-02-08T16:47:53.460Z,121.18
2018-02-08T16:50:22.812Z,107.47
2018-02-08T16:52:52.165Z,103.68
2018-02-08T16:55:22.078Z,105.70
2018-02-08T16:57:51.465Z,106.72
2018-02-08T17:00:20.828Z,99.45
2018-02-08T17:02:50.963Z,110.35
2018-02-08T17:05:20.325Z,110.80
2018-02-08T17:07:49.708Z,95.12
2018-02-08T17:10:19.069Z,95.85
2018-02-08T17:12:48.408Z,104.25
2018-02-08T17:15:17.795Z,109.37
2018-02-08T17:17:47.175Z,105.75
2018-02-08T17:20:16.528Z,98.00
2018-02-08T17:22:45.889Z,103.00
2018-02-08T17:25:15.242Z,102.20
2018-02-08T17:27:44.615Z,113.68
2018-02-08T17:30:13.993Z,105.03
2018-02-08T17:32:43.340Z,111.35
2018-02-08T17:35:12.694Z,109.82
2018-02-08T17:37:42.058Z,95.50
2018-02-08T17:40:12.200Z,100.70
2018-02-08T17:42:41.562Z,102.93
2018-02-08T17:45:10.934Z,101.82
2018-02-08T17:47:40.308Z,105.53
2018-02-08T17:50:09.700Z,97.07
2018-02-08T17:52:39.823Z,115.82
2018-02-08T17:55:09.175Z,92.20
2018-02-08T17:57:38.550Z,95.05
2018-02-08T18:00:07.902Z,97.47
2018-02-08T18:02:37.305Z,101.90
2018-02-08T18:05:06.656Z,100.93
2018-02-08T18:07:36.019Z,105.43
2018-02-08T18:10:06.139Z,98.00
2018-02-08T18:12:36.284Z,97.18
2018-02-08T18:15:05.630Z,102.20
2018-02-08T18:17:35.001Z,100.05
2018-02-08T18:20:04.447Z,106.32
2018-02-08T18:22:33.803Z,101.97
2018-02-08T18:25:03.179Z,99.85
2018-02-08T18:27:33.300Z,111.70
2018-02-08T18:30:02.676Z,94.30
2018-02-08T18:32:32.068Z,101.45
2018-02-08T18:35:01.513Z,96.68
2018-02-08T18:37:30.884Z,103.62
2018-02-08T18:40:00.300Z,95.53
2018-02-08T18:42:29.721Z,101.65
2018-02-08T18:44:59.325Z,91.43
2018-02-08T18:47:30.481Z,98.97
2018-02-08T18:50:00.835Z,99.45
2018-02-08T18:52:30.334Z,99.85
2018-02-08T18:54:59.756Z,90.30
2018-02-08T18:57:29.224Z,92.68
2018-02-08T18:59:58.603Z,99.53
2018-02-08T19:02:28.715Z,99.68
2018-02-08T19:04:58.063Z,102.47
2018-02-08T19:07:27.398Z,100.05
2018-02-08T19:09:57.254Z,93.00
2018-02-08T19:12:26.615Z,94.85
2018-02-08T19:14:55.954Z,103.68
2018-02-08T19:17:25.310Z,100.05
2018-02-08T19:19:54.660Z,94.95
2018-02-08T19:22:24.035Z,98.55
2018-02-08T19:24:53.379Z,101.60
2018-02-08T19:27:22.755Z,110.95
2018-02-08T19:29:52.098Z,107.75
2018-02-08T19:32:21.469Z,97.60
2018-02-08T19:34:50.844Z,99.40
2018-02-08T19:37:20.214Z,109.63
2018-02-08T19:39:49.579Z,97.88
2018-02-08T19:42:18.977Z,105.80
2018-02-08T19:44:48.534Z,110.85
2018-02-08T19:47:17.883Z,96.97
2018-02-08T19:49:47.251Z,103.05
2018-02-08T19:52:16.586Z,106.90
2018-02-08T19:54:45.932Z,102.00
2018-02-08T19:57:15.294Z,97.93
2018-02-08T19:59:44.647Z,97.20
2018-02-08T20:02:14.182Z,96.25
2018-02-08T20:04:44.305Z,90.35
2018-02-08T20:07:13.696Z,99.62
2018-02-08T20:09:43.826Z,99.10
2018-02-08T20:12:13.981Z,102.30
2018-02-08T20:14:54.066Z,109.30
2018-02-08T20:17:23.429Z,101.65
2018-02-08T20:19:52.796Z,106.07
2018-02-08T20:22:23.123Z,97.15
2018-02-08T20:24:53.316Z,94.10
2018-02-08T20:27:22.685Z,95.32
2018-02-08T20:29:52.040Z,103.00
2018-02-08T20:32:22.197Z,107.32
2018-02-08T20:34:51.560Z,106.47
2018-02-08T20:37:20.909Z,97.85
2018-02-08T20:39:50.297Z,95.07
2018-02-08T20:42:25.048Z,88.75
2018-02-08T20:44:55.055Z,106.75
2018-02-08T20:47:24.416Z,97.05
2018-02-08T20:50:00.173Z,109.90
2018-02-08T20:52:30.280Z,97.60
2018-02-08T20:55:00.411Z,95.75
2018-02-08T20:57:29.784Z,95.65
2018-02-08T20:59:59.132Z,97.20
2018-02-08T21:02:28.501Z,95.68
2018-02-08T21:04:57.869Z,105.90
2018-02-08T21:07:27.234Z,110.63
2018-02-08T21:09:57.385Z,102.68
2018-02-08T21:12:26.746Z,113.15
2018-02-08T21:14:56.122Z,112.90
2018-02-08T21:17:25.496Z,107.30
2018-02-08T21:19:54.845Z,111.28
2018-02-08T21:22:25.004Z,102.90
2018-02-08T21:24:54.363Z,115.12
2018-02-08T21:27:24.538Z,118.57
2018-02-08T21:29:53.917Z,113.03
2018-02-08T21:32:23.267Z,117.15
2018-02-08T21:34:52.635Z,110.43
2018-02-08T21:37:22.915Z,111.05
2018-02-08T21:39:53.070Z,101.55
2018-02-08T21:42:22.461Z,108.85
2018-02-08T21:44:51.826Z,112.12
2018-02-08T21:47:21.180Z,102.38
2018-02-08T21:49:50.573Z,112.90
2018-02-08T21:52:19.924Z,89.28
2018-02-08T21:54:49.420Z,104.43
2018-02-08T21:57:18.777Z,101.28
2018-02-08T21:59:48.147Z,101.57
2018-02-08T22:02:18.507Z,97.40
2018-02-08T22:04:47.864Z,98.82
2018-02-08T22:07:17.255Z,88.53
2018-02-08T22:09:46.601Z,100.45
2018-02-08T22:12:15.966Z,97.60
2018-02-08T22:14:45.384Z,104.80
2018-02-08T22:17:14.756Z,111.47
2018-02-08T22:19:44.111Z,105.65
2018-02-08T22:22:13.491Z,103.35
2018-02-08T22:24:43.606Z,97.70
2018-02-08T22:27:12.968Z,100.65
2018-02-08T22:29:42.325Z,101.72
2018-02-08T22:32:12.455Z,110.28
2018-02-08T22:34:42.579Z,104.97
2018-02-08T22:37:11.967Z,101.80
2018-02-08T22:39:42.716Z,113.12
2018-02-08T22:42:12.073Z,101.75
2018-02-08T22:44:41.447Z,94.03
2018-02-08T22:47:10.787Z,100.68
2018-02-08T22:49:40.157Z,100.70
2018-02-08T22:52:09.528Z,107.82
2018-02-08T22:54:38.904Z,102.40
2018-02-08T22:57:09.030Z,108.40
2018-02-08T22:59:39.182Z,118.95
2018-02-08T23:02:08.541Z,118.00
2018-02-08T23:04:37.906Z,112.60
2018-02-08T23:07:07.270Z,114.43
2018-02-08T23:09:36.666Z,99.68
2018-02-08T23:12:06.796Z,109.18
2018-02-08T23:14:36.174Z,110.22
2018-02-08T23:17:06.304Z,107.15
2018-02-08T23:19:36.435Z,106.97
2018-02-08T23:22:05.799Z,109.05
2018-02-08T23:24:35.172Z,108.03
2018-02-08T23:27:04.540Z,111.40
2018-02-08T23:29:33.908Z,110.75
2018-02-08T23:32:03.274Z,103.87
2018-02-08T23:34:32.635Z,116.70
2018-02-08T23:37:02.756Z,119.30
2018-02-08T23:39:32.891Z,111.62
2018-02-08T23:42:02.291Z,98.55
2018-02-08T23:44:31.656Z,108.93
2018-02-08T23:47:01.007Z,112.72
2018-02-08T23:49:30.375Z,110.82
2018-02-08T23:52:00.521Z,112.82
2018-02-08T23:54:30.303Z,107.93
2018-02-08T23:57:00.441Z,112.90
2018-02-08T23:59:31.371Z,108.78
